Time,TemperatureF,DewpointF,PressureIn,WindDirection,WindDirectionDegrees,WindSpeedMPH,WindSpeedGustMPH,Humidity,HourlyPrecipIn,Conditions,Clouds,dailyrainin,SoftwareType,DateUTC
2013-08-07 00:00:00,63.1,57.2,29.90,NW,312,0.0,0.0,81,0.00,,CLR,0.00,VWS V14.01,2013-08-07 07:00:00,
2013-08-07 00:05:00,62.8,57.2,29.90,NW,312,0.0,0.0,82,0.00,,CLR,0.00,VWS V14.01,2013-08-07 07:05:00,
2013-08-07 00:11:00,62.6,57.0,29.90,NW,312,0.0,0.0,82,0.00,,CLR,0.00,VWS V14.01,2013-08-07 07:11:00,
2013-08-07 00:16:00,62.3,56.7,29.90,NW,312,0.0,0.0,82,0.00,,CLR,0.00,VWS V14.01,2013-08-07 07:16:00,
2013-08-07 00:21:00,62.3,56.7,29.91,NW,312,0.0,0.0,82,0.00,,CLR,0.00,VWS V14.01,2013-08-07 07:21:00,
2013-08-07 00:26:00,62.5,56.9,29.91,NW,312,0.0,0.0,82,0.00,,CLR,0.00,VWS V14.01,2013-08-07 07:26:00,
2013-08-07 00:31:00,62.6,57.0,29.91,NW,312,0.0,0.0,82,0.00,,CLR,0.00,VWS V14.01,2013-08-07 07:31:00,
2013-08-07 00:36:00,62.6,57.0,29.91,NW,312,0.0,0.0,82,0.00,,CLR,0.00,VWS V14.01,2013-08-07 07:36:00,
2013-08-07 00:41:00,62.6,57.0,29.91,NW,312,0.0,0.0,82,0.00,,CLR,0.00,VWS V14.01,2013-08-07 07:41:00,
2013-08-07 00:46:00,62.6,57.0,29.91,NW,312,0.0,0.0,82,0.00,,CLR,0.00,VWS V14.01,2013-08-07 07:46:00,
2013-08-07 00:51:00,62.5,56.9,29.91,NW,312,0.0,0.0,82,0.00,,CLR,0.00,VWS V14.01,2013-08-07 07:51:00,
2013-08-07 00:56:00,62.3,56.7,29.91,NW,312,0.0,0.0,82,0.00,,CLR,0.00,VWS V14.01,2013-08-07 07:56:00,
2013-08-07 01:01:00,62.3,56.7,29.91,NW,312,0.0,0.0,82,0.00,,CLR,0.00,VWS V14.01,2013-08-07 08:01:00,
2013-08-07 01:06:00,62.5,56.9,29.91,NW,312,0.0,0.0,82,0.00,,CLR,0.00,VWS V14.01,2013-08-07 08:06:00,
2013-08-07 01:11:00,62.5,56.9,29.91,NW,312,0.0,0.0,82,0.00,,CLR,0.00,VWS V14.01,2013-08-07 08:11:00,
2013-08-07 01:16:00,62.5,56.9,29.91,NW,312,0.0,0.0,82,0.00,,CLR,0.00,VWS V14.01,2013-08-07 08:16:00,
2013-08-07 01:21:00,62.3,56.7,29.91,NW,312,0.0,0.0,82,0.00,,CLR,0.00,VWS V14.01,2013-08-07 08:21:00,
2013-08-07 01:26:00,62.2,56.6,29.91,NW,312,0.0,0.0,82,0.00,,CLR,0.00,VWS V14.01,2013-08-07 08:26:00,
2013-08-07 01:31:00,62.0,56.5,29.91,NW,312,0.0,0.0,82,0.00,,CLR,0.00,VWS V14.01,2013-08-07 08:31:00,
2013-08-07 01:36:00,61.7,56.5,29.91,NW,312,0.0,0.0,83,0.00,,CLR,0.00,VWS V14.01,2013-08-07 08:36:00,
2013-08-07 01:41:00,61.7,56.5,29.91,NW,312,0.0,0.0,83,0.00,,CLR,0.00,VWS V14.01,2013-08-07 08:41:00,
2013-08-07 01:46:00,61.5,56.3,29.91,NW,312,0.0,0.0,83,0.00,,CLR,0.00,VWS V14.01,2013-08-07 08:46:00,
2013-08-07 01:52:00,61.4,56.2,29.91,NW,312,0.0,0.0,83,0.00,,CLR,0.00,VWS V14.01,2013-08-07 08:52:00,
2013-08-07 01:57:00,61.4,56.2,29.91,ESE,114,0.0,0.0,83,0.00,,CLR,0.00,VWS V14.01,2013-08-07 08:57:00,
2013-08-07 02:02:00,61.4,56.2,29.91,ESE,114,0.0,0.0,83,0.00,,CLR,0.00,VWS V14.01,2013-08-07 09:02:00,
2013-08-07 02:07:00,61.2,56.3,29.91,ESE,114,0.0,0.0,84,0.00,,CLR,0.00,VWS V14.01,2013-08-07 09:07:00,
2013-08-07 02:12:00,61.2,56.0,29.91,ESE,114,0.0,0.0,83,0.00,,CLR,0.00,VWS V14.01,2013-08-07 09:12:00,
2013-08-07 02:17:00,61.4,56.2,29.91,ESE,114,0.0,0.0,83,0.00,,CLR,0.00,VWS V14.01,2013-08-07 09:17:00,
2013-08-07 02:22:00,61.4,56.2,29.91,ESE,114,0.0,0.0,83,0.00,,CLR,0.00,VWS V14.01,2013-08-07 09:22:00,
2013-08-07 02:27:00,61.5,56.3,29.91,ESE,114,0.0,0.0,83,0.00,,CLR,0.00,VWS V14.01,2013-08-07 09:27:00,
2013-08-07 02:32:00,61.9,56.0,29.91,ESE,114,0.0,0.0,81,0.00,,CLR,0.00,VWS V14.01,2013-08-07 09:32:00,
2013-08-07 02:37:00,62.2,56.3,29.91,ESE,114,0.0,0.0,81,0.00,,CLR,0.00,VWS V14.01,2013-08-07 09:37:00,
2013-08-07 02:43:00,62.3,56.4,29.91,ESE,114,0.0,0.0,81,0.00,,CLR,0.00,VWS V14.01,2013-08-07 09:43:00,
2013-08-07 02:48:00,62.5,56.2,29.91,ESE,114,0.0,0.0,80,0.00,,CLR,0.00,VWS V14.01,2013-08-07 09:48:00,
2013-08-07 02:53:00,62.3,56.1,29.91,ESE,114,0.0,0.0,80,0.00,,CLR,0.00,VWS V14.01,2013-08-07 09:53:00,
2013-08-07 02:58:00,61.4,55.2,29.91,NE,54,0.0,0.0,80,0.00,,CLR,0.00,VWS V14.01,2013-08-07 09:58:00,
2013-08-07 03:03:00,61.2,56.0,29.92,East,88,0.0,0.0,83,0.00,,CLR,0.00,VWS V14.01,2013-08-07 10:03:00,
2013-08-07 03:08:00,60.9,55.7,29.92,East,88,0.0,0.0,83,0.00,,CLR,0.00,VWS V14.01,2013-08-07 10:08:00,
2013-08-07 03:13:00,60.8,55.6,29.92,East,88,0.0,0.0,83,0.00,,CLR,0.00,VWS V14.01,2013-08-07 10:13:00,
2013-08-07 03:18:00,60.5,55.3,29.92,East,88,0.0,0.0,83,0.00,,CLR,0.00,VWS V14.01,2013-08-07 10:18:00,
2013-08-07 03:23:00,60.3,55.1,29.92,East,88,0.0,0.0,83,0.00,,CLR,0.00,VWS V14.01,2013-08-07 10:23:00,
2013-08-07 03:28:00,60.2,55.0,29.92,East,88,0.0,0.0,83,0.00,,CLR,0.00,VWS V14.01,2013-08-07 10:28:00,
2013-08-07 03:34:00,60.0,54.8,29.92,East,88,0.0,0.0,83,0.00,,CLR,0.00,VWS V14.01,2013-08-07 10:34:00,
2013-08-07 03:39:00,60.0,54.8,29.92,East,88,0.0,0.0,83,0.00,,CLR,0.00,VWS V14.01,2013-08-07 10:39:00,
2013-08-07 03:44:00,60.0,54.8,29.92,East,88,0.0,0.0,83,0.00,,CLR,0.00,VWS V14.01,2013-08-07 10:44:00,
2013-08-07 03:49:00,60.2,55.0,29.92,East,88,0.0,0.0,83,0.00,,CLR,0.00,VWS V14.01,2013-08-07 10:49:00,
2013-08-07 03:54:00,60.3,55.1,29.92,East,88,0.0,0.0,83,0.00,,CLR,0.00,VWS V14.01,2013-08-07 10:54:00,
2013-08-07 03:59:00,60.5,56.0,29.92,East,88,0.0,0.0,85,0.00,,CLR,0.00,VWS V14.01,2013-08-07 10:59:00,
2013-08-07 04:04:00,60.6,56.1,29.92,East,88,0.0,0.0,85,0.00,,CLR,0.00,VWS V14.01,2013-08-07 11:04:00,
2013-08-07 04:09:00,60.6,56.1,29.92,East,88,0.0,0.0,85,0.00,,CLR,0.00,VWS V14.01,2013-08-07 11:09:00,
2013-08-07 04:14:00,60.6,56.1,29.92,East,88,0.0,0.0,85,0.00,,CLR,0.00,VWS V14.01,2013-08-07 11:14:00,
2013-08-07 04:19:00,60.6,56.1,29.92,East,88,0.0,0.0,85,0.00,,CLR,0.00,VWS V14.01,2013-08-07 11:19:00,
2013-08-07 04:24:00,60.5,56.0,29.92,East,88,0.0,0.0,85,0.00,,CLR,0.00,VWS V14.01,2013-08-07 11:24:00,
2013-08-07 04:29:00,60.3,56.1,29.92,East,88,0.0,0.0,86,0.00,,CLR,0.00,VWS V14.01,2013-08-07 11:29:00,
2013-08-07 04:35:00,60.3,56.1,29.92,East,88,0.0,0.0,86,0.00,,CLR,0.00,VWS V14.01,2013-08-07 11:35:00,
2013-08-07 04:40:00,60.3,56.1,29.92,East,88,0.0,0.0,86,0.00,,CLR,0.00,VWS V14.01,2013-08-07 11:40:00,
2013-08-07 04:45:00,60.2,56.0,29.92,East,88,0.0,0.0,86,0.00,,CLR,0.00,VWS V14.01,2013-08-07 11:45:00,
2013-08-07 04:50:00,60.2,56.0,29.92,East,88,0.0,0.0,86,0.00,,CLR,0.00,VWS V14.01,2013-08-07 11:50:00,
2013-08-07 04:55:00,60.3,56.1,29.92,East,88,0.0,0.0,86,0.00,,CLR,0.00,VWS V14.01,2013-08-07 11:55:00,
2013-08-07 05:00:00,60.3,56.1,29.92,East,88,0.0,0.0,86,0.00,,CLR,0.00,VWS V14.01,2013-08-07 12:00:00,
2013-08-07 05:05:00,60.5,56.0,29.92,East,88,0.0,0.0,85,0.00,,CLR,0.00,VWS V14.01,2013-08-07 12:05:00,
2013-08-07 05:10:00,60.6,56.1,29.92,East,88,0.0,0.0,85,0.00,,CLR,0.00,VWS V14.01,2013-08-07 12:10:00,
2013-08-07 05:15:00,60.6,56.1,29.92,East,88,0.0,0.0,85,0.00,,CLR,0.00,VWS V14.01,2013-08-07 12:15:00,
2013-08-07 05:20:00,60.8,56.3,29.92,East,88,0.0,0.0,85,0.00,,CLR,0.00,VWS V14.01,2013-08-07 12:20:00,
2013-08-07 05:25:00,60.8,55.9,29.92,East,88,0.0,0.0,84,0.00,,CLR,0.00,VWS V14.01,2013-08-07 12:25:00,
2013-08-07 05:30:00,60.8,55.6,29.92,East,88,0.0,0.0,83,0.00,,CLR,0.00,VWS V14.01,2013-08-07 12:30:00,
2013-08-07 05:35:00,60.8,55.6,29.92,East,88,0.0,0.0,83,0.00,,CLR,0.00,VWS V14.01,2013-08-07 12:35:00,
2013-08-07 05:40:00,60.8,55.6,29.92,East,88,0.0,0.0,83,0.00,,CLR,0.00,VWS V14.01,2013-08-07 12:40:00,
2013-08-07 05:45:00,60.8,55.6,29.92,East,88,0.0,0.0,83,0.00,,CLR,0.00,VWS V14.01,2013-08-07 12:45:00,
2013-08-07 05:50:00,60.8,55.6,29.92,East,88,0.0,0.0,83,0.00,,CLR,0.00,VWS V14.01,2013-08-07 12:50:00,
2013-08-07 05:55:00,60.9,55.4,29.92,East,88,0.0,0.0,82,0.00,,CLR,0.00,VWS V14.01,2013-08-07 12:55:00,
2013-08-07 06:01:00,60.9,55.4,29.92,East,88,0.0,0.0,82,0.00,,CLR,0.00,VWS V14.01,2013-08-07 13:01:00,
2013-08-07 06:06:00,61.1,55.6,29.92,East,88,0.0,0.0,82,0.00,,CLR,0.00,VWS V14.01,2013-08-07 13:06:00,
2013-08-07 06:11:00,61.1,55.6,29.92,East,88,0.0,0.0,82,0.00,,CLR,0.00,VWS V14.01,2013-08-07 13:11:00,
2013-08-07 06:16:00,61.1,55.6,29.92,East,88,0.0,0.0,82,0.00,,CLR,0.00,VWS V14.01,2013-08-07 13:16:00,
2013-08-07 06:21:00,61.1,55.9,29.93,East,88,0.0,0.0,83,0.00,,CLR,0.00,VWS V14.01,2013-08-07 13:21:00,
2013-08-07 06:26:00,61.4,56.2,29.93,East,88,0.0,0.0,83,0.00,,CLR,0.00,VWS V14.01,2013-08-07 13:26:00,
2013-08-07 06:31:00,61.5,56.3,29.93,East,88,0.0,0.0,83,0.00,,CLR,0.00,VWS V14.01,2013-08-07 13:31:00,
2013-08-07 06:36:00,62.2,56.6,29.93,East,88,0.0,0.0,82,0.00,,CLR,0.00,VWS V14.01,2013-08-07 13:36:00,
2013-08-07 06:41:00,62.6,57.0,29.93,East,88,0.0,0.0,82,0.00,,CLR,0.00,VWS V14.01,2013-08-07 13:41:00,
2013-08-07 06:46:00,63.1,57.5,29.93,East,88,0.0,0.0,82,0.00,,CLR,0.00,VWS V14.01,2013-08-07 13:46:00,
2013-08-07 06:51:00,63.6,57.0,29.93,East,88,0.0,0.0,79,0.00,,CLR,0.00,VWS V14.01,2013-08-07 13:51:00,
2013-08-07 06:56:00,64.2,57.6,29.93,East,88,0.0,0.0,79,0.00,,CLR,0.00,VWS V14.01,2013-08-07 13:56:00,
2013-08-07 07:01:00,64.4,57.8,29.93,East,88,0.0,0.0,79,0.00,,CLR,0.00,VWS V14.01,2013-08-07 14:01:00,
2013-08-07 07:06:00,65.2,58.5,29.94,East,88,0.0,0.0,79,0.00,,CLR,0.00,VWS V14.01,2013-08-07 14:06:00,
2013-08-07 07:12:00,65.7,57.9,29.94,East,88,0.0,0.0,76,0.00,,CLR,0.00,VWS V14.01,2013-08-07 14:12:00,
2013-08-07 07:17:00,66.0,58.2,29.94,East,88,0.0,0.0,76,0.00,,CLR,0.00,VWS V14.01,2013-08-07 14:17:00,
2013-08-07 07:22:00,66.3,58.5,29.94,East,88,0.0,0.0,76,0.00,,CLR,0.00,VWS V14.01,2013-08-07 14:22:00,
2013-08-07 07:27:00,67.3,59.5,29.94,East,88,0.0,0.0,76,0.00,,CLR,0.00,VWS V14.01,2013-08-07 14:27:00,
2013-08-07 07:32:00,67.4,59.6,29.94,East,88,0.0,0.0,76,0.00,,CLR,0.00,VWS V14.01,2013-08-07 14:32:00,
2013-08-07 07:37:00,67.6,59.8,29.94,East,88,0.0,0.0,76,0.00,,CLR,0.00,VWS V14.01,2013-08-07 14:37:00,
2013-08-07 07:42:00,67.9,59.3,29.94,East,88,0.0,0.0,74,0.00,,CLR,0.00,VWS V14.01,2013-08-07 14:42:00,
2013-08-07 07:47:00,68.3,59.7,29.95,East,88,0.0,0.0,74,0.00,,CLR,0.00,VWS V14.01,2013-08-07 14:47:00,
2013-08-07 07:53:00,68.4,59.8,29.95,East,88,0.0,0.0,74,0.00,,CLR,0.00,VWS V14.01,2013-08-07 14:53:00,
2013-08-07 07:58:00,69.1,59.7,29.95,East,88,0.0,0.0,72,0.00,,CLR,0.00,VWS V14.01,2013-08-07 14:58:00,
2013-08-07 08:03:00,69.6,60.2,29.95,East,88,0.0,0.0,72,0.00,,CLR,0.00,VWS V14.01,2013-08-07 15:03:00,
2013-08-07 08:08:00,69.6,60.2,29.95,East,88,0.0,0.0,72,0.00,,CLR,0.00,VWS V14.01,2013-08-07 15:08:00,
2013-08-07 08:13:00,70.9,61.0,29.95,East,88,0.0,0.0,71,0.00,,CLR,0.00,VWS V14.01,2013-08-07 15:13:00,
2013-08-07 08:18:00,71.8,61.9,29.95,East,92,0.0,0.0,71,0.00,,CLR,0.00,VWS V14.01,2013-08-07 15:18:00,
2013-08-07 08:23:00,72.5,62.6,29.95,East,92,0.0,0.0,71,0.00,,CLR,0.00,VWS V14.01,2013-08-07 15:23:00,
2013-08-07 08:28:00,72.5,62.6,29.95,East,92,0.0,0.0,71,0.00,,CLR,0.00,VWS V14.01,2013-08-07 15:28:00,
2013-08-07 08:33:00,72.6,61.0,29.95,East,92,0.0,0.0,67,0.00,,CLR,0.00,VWS V14.01,2013-08-07 15:33:00,
2013-08-07 08:38:00,72.6,61.0,29.95,East,92,0.0,0.0,67,0.00,,CLR,0.00,VWS V14.01,2013-08-07 15:38:00,
2013-08-07 08:44:00,72.6,61.0,29.95,East,92,2.0,2.0,67,0.00,,CLR,0.00,VWS V14.01,2013-08-07 15:44:00,
2013-08-07 08:49:00,72.6,61.0,29.95,East,100,1.0,1.0,67,0.00,,CLR,0.00,VWS V14.01,2013-08-07 15:49:00,
2013-08-07 08:54:00,73.1,61.5,29.95,ESE,102,0.0,0.0,67,0.00,,CLR,0.00,VWS V14.01,2013-08-07 15:54:00,
2013-08-07 08:59:00,73.7,60.3,29.95,ESE,102,0.0,0.0,63,0.00,,CLR,0.00,VWS V14.01,2013-08-07 15:59:00,
2013-08-07 09:04:00,74.3,60.9,29.95,ESE,102,0.0,0.0,63,0.00,,CLR,0.00,VWS V14.01,2013-08-07 16:04:00,
2013-08-07 09:09:00,75.0,61.6,29.95,ESE,102,0.0,0.0,63,0.00,,CLR,0.00,VWS V14.01,2013-08-07 16:09:00,
2013-08-07 09:14:00,75.7,61.3,29.95,ESE,102,0.0,0.0,61,0.00,,CLR,0.00,VWS V14.01,2013-08-07 16:14:00,
2013-08-07 09:19:00,76.1,60.3,29.96,ESE,102,0.0,0.0,58,0.00,,CLR,0.00,VWS V14.01,2013-08-07 16:19:00,
2013-08-07 09:24:00,76.1,60.3,29.96,ESE,102,0.0,0.0,58,0.00,,CLR,0.00,VWS V14.01,2013-08-07 16:24:00,
2013-08-07 09:29:00,77.3,61.4,29.96,ESE,102,0.0,0.0,58,0.00,,CLR,0.00,VWS V14.01,2013-08-07 16:29:00,
2013-08-07 09:34:00,77.3,61.4,29.96,ESE,102,0.0,0.0,58,0.00,,CLR,0.00,VWS V14.01,2013-08-07 16:34:00,
2013-08-07 09:40:00,77.3,61.4,29.96,ESE,102,0.0,0.0,58,0.00,,CLR,0.00,VWS V14.01,2013-08-07 16:40:00,
2013-08-07 09:45:00,79.1,63.1,29.96,ESE,102,0.0,0.0,58,0.00,,CLR,0.00,VWS V14.01,2013-08-07 16:45:00,
2013-08-07 09:50:00,79.1,63.1,29.96,ESE,102,0.0,0.0,58,0.00,,CLR,0.00,VWS V14.01,2013-08-07 16:50:00,
2013-08-07 09:55:00,80.8,64.7,29.96,ESE,102,0.0,0.0,58,0.00,,CLR,0.00,VWS V14.01,2013-08-07 16:55:00,
2013-08-07 10:00:00,81.1,64.9,29.96,ESE,102,0.0,0.0,58,0.00,,CLR,0.00,VWS V14.01,2013-08-07 17:00:00,
2013-08-07 10:05:00,81.9,65.7,29.96,ESE,102,0.0,0.0,58,0.00,,CLR,0.00,VWS V14.01,2013-08-07 17:05:00,
2013-08-07 10:10:00,82.1,56.1,29.96,ESE,102,0.0,0.0,41,0.00,,CLR,0.00,VWS V14.01,2013-08-07 17:10:00,
2013-08-07 10:15:00,81.9,57.2,29.96,ESE,102,0.0,0.0,43,0.00,,CLR,0.00,VWS V14.01,2013-08-07 17:15:00,
2013-08-07 10:20:00,82.6,59.1,29.96,ESE,102,0.0,0.0,45,0.00,,CLR,0.00,VWS V14.01,2013-08-07 17:20:00,
2013-08-07 10:26:00,82.8,59.9,29.96,ESE,102,0.0,0.0,46,0.00,,CLR,0.00,VWS V14.01,2013-08-07 17:26:00,
2013-08-07 10:31:00,82.1,56.1,29.96,ESE,102,0.0,0.0,41,0.00,,CLR,0.00,VWS V14.01,2013-08-07 17:31:00,
2013-08-07 10:36:00,81.9,55.2,29.95,ESE,102,0.0,0.0,40,0.00,,CLR,0.00,VWS V14.01,2013-08-07 17:36:00,
2013-08-07 10:41:00,82.1,57.4,29.95,ESE,102,0.0,0.0,43,0.00,,CLR,0.00,VWS V14.01,2013-08-07 17:41:00,
2013-08-07 10:46:00,82.1,55.4,29.95,ESE,102,0.0,0.0,40,0.00,,CLR,0.00,VWS V14.01,2013-08-07 17:46:00,
2013-08-07 10:51:00,82.1,56.1,29.95,ESE,102,0.0,0.0,41,0.00,,CLR,0.00,VWS V14.01,2013-08-07 17:51:00,
2013-08-07 10:56:00,82.2,56.2,29.95,ESE,102,0.0,0.0,41,0.00,,CLR,0.00,VWS V14.01,2013-08-07 17:56:00,
2013-08-07 11:01:00,82.8,58.0,29.95,ESE,102,0.0,0.0,43,0.00,,CLR,0.00,VWS V14.01,2013-08-07 18:01:00,
2013-08-07 11:06:00,83.4,53.7,29.95,ESE,102,0.0,0.0,36,0.00,,CLR,0.00,VWS V14.01,2013-08-07 18:06:00,
2013-08-07 11:11:00,83.6,56.0,29.95,ESE,102,0.0,0.0,39,0.00,,CLR,0.00,VWS V14.01,2013-08-07 18:11:00,
2013-08-07 11:16:00,83.4,57.3,29.95,ESE,102,0.0,0.0,41,0.00,,CLR,0.00,VWS V14.01,2013-08-07 18:16:00,
2013-08-07 11:21:00,83.8,58.3,29.95,East,97,0.0,0.0,42,0.00,,CLR,0.00,VWS V14.01,2013-08-07 18:21:00,
2013-08-07 11:26:00,84.0,53.4,29.95,East,97,0.0,0.0,35,0.00,,CLR,0.00,VWS V14.01,2013-08-07 18:26:00,
2013-08-07 11:32:00,84.0,53.4,29.95,East,97,0.0,0.0,35,0.00,,CLR,0.00,VWS V14.01,2013-08-07 18:32:00,
2013-08-07 11:37:00,84.4,57.5,29.94,East,97,0.0,0.0,40,0.00,,CLR,0.00,VWS V14.01,2013-08-07 18:37:00,
2013-08-07 11:42:00,84.6,57.6,29.94,East,97,0.0,0.0,40,0.00,,CLR,0.00,VWS V14.01,2013-08-07 18:42:00,
2013-08-07 11:47:00,86.1,59.0,29.94,East,97,0.0,0.0,40,0.00,,CLR,0.00,VWS V14.01,2013-08-07 18:47:00,
2013-08-07 11:52:00,86.3,59.2,29.94,East,97,0.0,0.0,40,0.00,,CLR,0.00,VWS V14.01,2013-08-07 18:52:00,
2013-08-07 11:57:00,85.9,54.3,29.94,East,97,0.0,0.0,34,0.00,,CLR,0.00,VWS V14.01,2013-08-07 18:57:00,
2013-08-07 12:02:00,85.7,54.1,29.94,East,97,0.0,0.0,34,0.00,,CLR,0.00,VWS V14.01,2013-08-07 19:02:00,
2013-08-07 12:07:00,85.7,54.1,29.94,East,97,0.0,0.0,34,0.00,,CLR,0.00,VWS V14.01,2013-08-07 19:07:00,
2013-08-07 12:13:00,86.5,54.8,29.94,East,97,0.0,0.0,34,0.00,,CLR,0.00,VWS V14.01,2013-08-07 19:13:00,
2013-08-07 12:18:00,86.5,54.8,29.94,East,97,0.0,0.0,34,0.00,,CLR,0.00,VWS V14.01,2013-08-07 19:18:00,
2013-08-07 12:23:00,86.5,54.8,29.94,ESE,106,0.0,0.0,34,0.00,,CLR,0.00,VWS V14.01,2013-08-07 19:23:00,
2013-08-07 12:28:00,86.7,55.0,29.94,ESE,106,0.0,0.0,34,0.00,,CLR,0.00,VWS V14.01,2013-08-07 19:28:00,
2013-08-07 12:33:00,87.1,55.4,29.94,ESE,106,0.0,0.0,34,0.00,,CLR,0.00,VWS V14.01,2013-08-07 19:33:00,
2013-08-07 12:38:00,88.0,52.7,29.94,ESE,106,0.0,0.0,30,0.00,,CLR,0.00,VWS V14.01,2013-08-07 19:38:00,
2013-08-07 12:43:00,88.4,53.1,29.94,SE,128,0.0,0.0,30,0.00,,CLR,0.00,VWS V14.01,2013-08-07 19:43:00,
2013-08-07 12:48:00,88.2,52.9,29.93,SE,128,0.0,0.0,30,0.00,,CLR,0.00,VWS V14.01,2013-08-07 19:48:00,
2013-08-07 12:53:00,88.2,52.9,29.93,SE,128,0.0,0.0,30,0.00,,CLR,0.00,VWS V14.01,2013-08-07 19:53:00,
2013-08-07 12:58:00,88.4,53.1,29.93,SE,128,0.0,0.0,30,0.00,,CLR,0.00,VWS V14.01,2013-08-07 19:58:00,
2013-08-07 13:03:00,88.4,49.2,29.93,SE,128,0.0,0.0,26,0.00,,CLR,0.00,VWS V14.01,2013-08-07 20:03:00,
2013-08-07 13:08:00,88.6,49.4,29.93,SE,128,0.0,0.0,26,0.00,,CLR,0.00,VWS V14.01,2013-08-07 20:08:00,
2013-08-07 13:13:00,89.4,51.0,29.93,SE,128,0.0,0.0,27,0.00,,CLR,0.00,VWS V14.01,2013-08-07 20:13:00,
2013-08-07 13:19:00,90.5,47.7,29.92,SE,128,0.0,0.0,23,0.00,,CLR,0.00,VWS V14.01,2013-08-07 20:19:00,
2013-08-07 13:24:00,90.9,48.0,29.92,SE,128,0.0,0.0,23,0.00,,CLR,0.00,VWS V14.01,2013-08-07 20:24:00,
2013-08-07 13:29:00,91.3,48.3,29.92,SE,128,0.0,0.0,23,0.00,,CLR,0.00,VWS V14.01,2013-08-07 20:29:00,
2013-08-07 13:34:00,91.5,48.5,29.92,SE,128,0.0,0.0,23,0.00,,CLR,0.00,VWS V14.01,2013-08-07 20:34:00,
2013-08-07 13:39:00,92.4,49.3,29.92,NW,308,0.0,1.0,23,0.00,,CLR,0.00,VWS V14.01,2013-08-07 20:39:00,
2013-08-07 13:44:00,92.2,49.1,29.92,NW,309,0.0,0.0,23,0.00,,CLR,0.00,VWS V14.01,2013-08-07 20:44:00,
2013-08-07 13:49:00,92.4,50.4,29.92,NW,309,0.0,0.0,24,0.00,,CLR,0.00,VWS V14.01,2013-08-07 20:49:00,
2013-08-07 13:54:00,93.5,51.3,29.92,NW,309,0.0,0.0,24,0.00,,CLR,0.00,VWS V14.01,2013-08-07 20:54:00,
2013-08-07 13:59:00,94.4,52.1,29.92,North,359,0.0,0.0,24,0.00,,CLR,0.00,VWS V14.01,2013-08-07 20:59:00,
2013-08-07 14:04:00,94.4,52.1,29.92,North,359,0.0,0.0,24,0.00,,CLR,0.00,VWS V14.01,2013-08-07 21:04:00,
2013-08-07 14:09:00,94.4,49.7,29.92,North,359,0.0,0.0,22,0.00,,CLR,0.00,VWS V14.01,2013-08-07 21:09:00,
2013-08-07 14:14:00,94.2,49.6,29.92,North,359,0.0,0.0,22,0.00,,CLR,0.00,VWS V14.01,2013-08-07 21:14:00,
2013-08-07 14:20:00,93.3,46.3,29.91,NW,318,0.0,0.0,20,0.00,,CLR,0.00,VWS V14.01,2013-08-07 21:20:00,
2013-08-07 14:25:00,93.1,51.0,29.91,NW,318,0.0,0.0,24,0.00,,CLR,0.00,VWS V14.01,2013-08-07 21:25:00,
2013-08-07 14:30:00,93.1,49.8,29.91,NW,318,0.0,0.0,23,0.00,,CLR,0.00,VWS V14.01,2013-08-07 21:30:00,
2013-08-07 14:35:00,92.8,49.6,29.91,North,4,0.0,0.0,23,0.00,,CLR,0.00,VWS V14.01,2013-08-07 21:35:00,
2013-08-07 14:40:00,92.8,49.6,29.91,North,4,0.0,0.0,23,0.00,,CLR,0.00,VWS V14.01,2013-08-07 21:40:00,
2013-08-07 14:45:00,93.1,49.8,29.91,North,4,0.0,0.0,23,0.00,,CLR,0.00,VWS V14.01,2013-08-07 21:45:00,
2013-08-07 14:50:00,93.1,49.8,29.90,North,4,0.0,0.0,23,0.00,,CLR,0.00,VWS V14.01,2013-08-07 21:50:00,
2013-08-07 14:55:00,92.4,49.3,29.90,North,4,0.0,0.0,23,0.00,,CLR,0.00,VWS V14.01,2013-08-07 21:55:00,
2013-08-07 15:00:00,92.8,49.6,29.90,North,4,0.0,0.0,23,0.00,,CLR,0.00,VWS V14.01,2013-08-07 22:00:00,
2013-08-07 15:05:00,92.8,49.6,29.90,North,4,0.0,0.0,23,0.00,,CLR,0.00,VWS V14.01,2013-08-07 22:05:00,
2013-08-07 15:10:00,93.7,50.3,29.90,North,4,0.0,0.0,23,0.00,,CLR,0.00,VWS V14.01,2013-08-07 22:10:00,
2013-08-07 15:16:00,93.7,50.3,29.90,North,4,0.0,1.0,23,0.00,,CLR,0.00,VWS V14.01,2013-08-07 22:16:00,
2013-08-07 15:21:00,93.5,49.0,29.90,North,6,0.0,0.0,22,0.00,,CLR,0.00,VWS V14.01,2013-08-07 22:21:00,
2013-08-07 15:26:00,93.5,46.5,29.90,North,0,0.0,0.0,20,0.00,,CLR,0.00,VWS V14.01,2013-08-07 22:26:00,
2013-08-07 15:31:00,93.5,46.5,29.90,North,0,0.0,0.0,20,0.00,,CLR,0.00,VWS V14.01,2013-08-07 22:31:00,
2013-08-07 15:36:00,93.7,46.6,29.89,NW,313,0.0,0.0,20,0.00,,CLR,0.00,VWS V14.01,2013-08-07 22:36:00,
2013-08-07 15:41:00,94.4,47.2,29.89,NW,313,0.0,0.0,20,0.00,,CLR,0.00,VWS V14.01,2013-08-07 22:41:00,
2013-08-07 15:46:00,94.4,47.2,29.89,NW,313,0.0,0.0,20,0.00,,CLR,0.00,VWS V14.01,2013-08-07 22:46:00,
2013-08-07 15:51:00,93.9,46.8,29.89,NW,313,0.0,0.0,20,0.00,,CLR,0.00,VWS V14.01,2013-08-07 22:51:00,
2013-08-07 15:56:00,93.1,49.8,29.89,NW,313,0.0,0.0,23,0.00,,CLR,0.00,VWS V14.01,2013-08-07 22:56:00,
2013-08-07 16:01:00,92.6,49.4,29.89,NW,313,0.0,0.0,23,0.00,,CLR,0.00,VWS V14.01,2013-08-07 23:01:00,
2013-08-07 16:06:00,92.4,49.3,29.89,NW,313,0.0,0.0,23,0.00,,CLR,0.00,VWS V14.01,2013-08-07 23:06:00,
2013-08-07 16:11:00,92.2,49.1,29.89,NW,313,0.0,0.0,23,0.00,,CLR,0.00,VWS V14.01,2013-08-07 23:11:00,
2013-08-07 16:17:00,92.4,49.3,29.89,NW,313,0.0,0.0,23,0.00,,CLR,0.00,VWS V14.01,2013-08-07 23:17:00,
2013-08-07 16:22:00,92.4,49.3,29.89,NW,313,0.0,0.0,23,0.00,,CLR,0.00,VWS V14.01,2013-08-07 23:22:00,
2013-08-07 16:27:00,92.6,49.4,29.89,NW,313,0.0,0.0,23,0.00,,CLR,0.00,VWS V14.01,2013-08-07 23:27:00,
2013-08-07 16:32:00,92.8,44.5,29.89,NW,313,0.0,0.0,19,0.00,,CLR,0.00,VWS V14.01,2013-08-07 23:32:00,
2013-08-07 16:37:00,92.8,49.6,29.88,NW,313,0.0,0.0,23,0.00,,CLR,0.00,VWS V14.01,2013-08-07 23:37:00,
2013-08-07 16:42:00,92.8,49.6,29.88,NW,313,0.0,0.0,23,0.00,,CLR,0.00,VWS V14.01,2013-08-07 23:42:00,
2013-08-07 16:47:00,92.8,49.6,29.88,NW,313,0.0,0.0,23,0.00,,CLR,0.00,VWS V14.01,2013-08-07 23:47:00,
2013-08-07 16:52:00,92.8,49.6,29.88,NW,313,0.0,0.0,23,0.00,,CLR,0.00,VWS V14.01,2013-08-07 23:52:00,
2013-08-07 16:57:00,93.1,49.8,29.88,NW,313,0.0,0.0,23,0.00,,CLR,0.00,VWS V14.01,2013-08-07 23:57:00,
2013-08-07 17:02:00,93.5,50.2,29.88,NW,313,0.0,0.0,23,0.00,,CLR,0.00,VWS V14.01,2013-08-08 00:02:00,
2013-08-07 17:07:00,93.3,50.0,29.88,NW,313,0.0,0.0,23,0.00,,CLR,0.00,VWS V14.01,2013-08-08 00:07:00,
2013-08-07 17:12:00,93.5,50.2,29.88,NW,313,0.0,0.0,23,0.00,,CLR,0.00,VWS V14.01,2013-08-08 00:12:00,
2013-08-07 17:18:00,93.5,50.2,29.87,NW,313,0.0,0.0,23,0.00,,CLR,0.00,VWS V14.01,2013-08-08 00:18:00,
2013-08-07 17:23:00,93.1,49.8,29.87,SSE,160,0.0,0.0,23,0.00,,CLR,0.00,VWS V14.01,2013-08-08 00:23:00,
2013-08-07 17:28:00,92.8,49.6,29.87,SSE,160,0.0,0.0,23,0.00,,CLR,0.00,VWS V14.01,2013-08-08 00:28:00,
2013-08-07 17:33:00,92.6,49.4,29.87,SSE,168,0.0,0.0,23,0.00,,CLR,0.00,VWS V14.01,2013-08-08 00:33:00,
2013-08-07 17:38:00,92.4,44.2,29.87,SSE,168,0.0,0.0,19,0.00,,CLR,0.00,VWS V14.01,2013-08-08 00:38:00,
2013-08-07 17:43:00,92.0,43.9,29.87,SSE,168,0.0,0.0,19,0.00,,CLR,0.00,VWS V14.01,2013-08-08 00:43:00,
2013-08-07 17:48:00,91.7,43.6,29.87,SSE,168,0.0,0.0,19,0.00,,CLR,0.00,VWS V14.01,2013-08-08 00:48:00,
2013-08-07 17:53:00,92.2,47.9,29.87,SSE,168,0.0,0.0,22,0.00,,CLR,0.00,VWS V14.01,2013-08-08 00:53:00,
2013-08-07 17:58:00,92.4,48.1,29.87,SSE,168,0.0,0.0,22,0.00,,CLR,0.00,VWS V14.01,2013-08-08 00:58:00,
2013-08-07 18:04:00,92.0,47.8,29.87,SSE,168,0.0,0.0,22,0.00,,CLR,0.00,VWS V14.01,2013-08-08 01:04:00,
2013-08-07 18:09:00,91.1,47.0,29.87,SSE,168,0.0,0.0,22,0.00,,CLR,0.00,VWS V14.01,2013-08-08 01:09:00,
2013-08-07 18:14:00,90.5,46.5,29.87,SSE,168,0.0,0.0,22,0.00,,CLR,0.00,VWS V14.01,2013-08-08 01:14:00,
2013-08-07 18:19:00,90.3,46.3,29.87,SSE,168,0.0,0.0,22,0.00,,CLR,0.00,VWS V14.01,2013-08-08 01:19:00,
2013-08-07 18:24:00,89.4,45.6,29.87,SSE,168,0.0,0.0,22,0.00,,CLR,0.00,VWS V14.01,2013-08-08 01:24:00,
2013-08-07 18:29:00,89.0,45.3,29.87,SSE,168,0.0,0.0,22,0.00,,CLR,0.00,VWS V14.01,2013-08-08 01:29:00,
2013-08-07 18:34:00,88.6,48.3,29.86,SSE,168,0.0,0.0,25,0.00,,CLR,0.00,VWS V14.01,2013-08-08 01:34:00,
2013-08-07 18:39:00,87.7,47.5,29.86,SSE,168,0.0,0.0,25,0.00,,CLR,0.00,VWS V14.01,2013-08-08 01:39:00,
2013-08-07 18:44:00,87.1,47.0,29.86,SSE,168,0.0,0.0,25,0.00,,CLR,0.00,VWS V14.01,2013-08-08 01:44:00,
2013-08-07 18:50:00,87.1,47.0,29.86,SSE,168,0.0,0.0,25,0.00,,CLR,0.00,VWS V14.01,2013-08-08 01:50:00,
2013-08-07 18:55:00,85.7,45.9,29.86,SSE,168,0.0,0.0,25,0.00,,CLR,0.00,VWS V14.01,2013-08-08 01:55:00,
2013-08-07 19:00:00,85.1,45.4,29.86,SSE,168,0.0,0.0,25,0.00,,CLR,0.00,VWS V14.01,2013-08-08 02:00:00,
2013-08-07 19:05:00,84.6,44.9,29.86,SSE,168,0.0,0.0,25,0.00,,CLR,0.00,VWS V14.01,2013-08-08 02:05:00,
2013-08-07 19:10:00,83.8,44.3,29.86,SSE,168,0.0,0.0,25,0.00,,CLR,0.00,VWS V14.01,2013-08-08 02:10:00,
2013-08-07 19:15:00,83.2,43.8,29.86,SSE,168,0.0,0.0,25,0.00,,CLR,0.00,VWS V14.01,2013-08-08 02:15:00,
2013-08-07 19:20:00,82.2,49.4,29.86,SSE,168,0.0,0.0,32,0.00,,CLR,0.00,VWS V14.01,2013-08-08 02:20:00,
2013-08-07 19:25:00,81.7,50.6,29.86,SSE,168,0.0,0.0,34,0.00,,CLR,0.00,VWS V14.01,2013-08-08 02:25:00,
2013-08-07 19:30:00,81.5,50.5,29.86,SSE,168,0.0,0.0,34,0.00,,CLR,0.00,VWS V14.01,2013-08-08 02:30:00,
2013-08-07 19:35:00,81.5,52.7,29.86,SSE,168,0.0,0.0,37,0.00,,CLR,0.00,VWS V14.01,2013-08-08 02:35:00,
2013-08-07 19:40:00,80.6,52.0,29.86,SSE,168,0.0,0.0,37,0.00,,CLR,0.00,VWS V14.01,2013-08-08 02:40:00,
2013-08-07 19:45:00,79.8,51.2,29.86,SSE,168,0.0,0.0,37,0.00,,CLR,0.00,VWS V14.01,2013-08-08 02:45:00,
2013-08-07 19:51:00,78.9,57.0,29.86,SSE,168,0.0,0.0,47,0.00,,CLR,0.00,VWS V14.01,2013-08-08 02:51:00,
2013-08-07 19:56:00,78.2,56.3,29.86,SSE,168,0.0,0.0,47,0.00,,CLR,0.00,VWS V14.01,2013-08-08 02:56:00,
2013-08-07 20:01:00,78.2,56.3,29.86,SSE,168,0.0,0.0,47,0.00,,CLR,0.00,VWS V14.01,2013-08-08 03:01:00,
2013-08-07 20:06:00,78.2,56.3,29.87,SSE,168,0.0,0.0,47,0.00,,CLR,0.00,VWS V14.01,2013-08-08 03:06:00,
2013-08-07 20:11:00,78.2,56.3,29.87,SSE,168,0.0,0.0,47,0.00,,CLR,0.00,VWS V14.01,2013-08-08 03:11:00,
2013-08-07 20:16:00,78.2,56.3,29.87,SSE,168,0.0,0.0,47,0.00,,CLR,0.00,VWS V14.01,2013-08-08 03:16:00,
2013-08-07 20:21:00,75.4,53.8,29.87,SSE,168,0.0,0.0,47,0.00,,CLR,0.00,VWS V14.01,2013-08-08 03:21:00,
2013-08-07 20:26:00,75.2,53.6,29.87,SSE,168,0.0,0.0,47,0.00,,CLR,0.00,VWS V14.01,2013-08-08 03:26:00,
2013-08-07 20:31:00,75.2,53.6,29.87,SSE,168,0.0,0.0,47,0.00,,CLR,0.00,VWS V14.01,2013-08-08 03:31:00,
2013-08-07 20:36:00,73.5,52.1,29.88,SSE,168,0.0,0.0,47,0.00,,CLR,0.00,VWS V14.01,2013-08-08 03:36:00,
2013-08-07 20:41:00,72.8,51.4,29.88,SSE,168,0.0,0.0,47,0.00,,CLR,0.00,VWS V14.01,2013-08-08 03:41:00,
2013-08-07 20:46:00,72.8,51.4,29.88,SSE,168,0.0,0.0,47,0.00,,CLR,0.00,VWS V14.01,2013-08-08 03:46:00,
2013-08-07 20:52:00,72.8,51.4,29.88,SSE,168,0.0,0.0,47,0.00,,CLR,0.00,VWS V14.01,2013-08-08 03:52:00,
2013-08-07 20:57:00,71.1,49.9,29.88,SSE,168,0.0,0.0,47,0.00,,CLR,0.00,VWS V14.01,2013-08-08 03:57:00,
2013-08-07 21:01:00,70.4,49.2,29.88,SSE,168,0.0,0.0,47,0.00,,CLR,0.00,VWS V14.01,2013-08-08 04:01:00,
2013-08-07 21:02:00,70.4,49.2,29.89,SSE,168,0.0,0.0,47,0.00,,CLR,0.00,VWS V14.01,2013-08-08 04:02:00,
2013-08-07 21:04:00,70.4,49.2,29.89,SSE,168,0.0,0.0,47,0.00,,CLR,0.00,VWS V14.01,2013-08-08 04:04:00,
2013-08-07 21:09:00,69.8,48.7,29.89,SSE,168,0.0,0.0,47,0.00,,CLR,0.00,VWS V14.01,2013-08-08 04:09:00,
2013-08-07 21:14:00,69.6,48.5,29.89,SSE,168,0.0,0.0,47,0.00,,CLR,0.00,VWS V14.01,2013-08-08 04:14:00,
2013-08-07 21:20:00,69.6,48.5,29.89,SSE,168,0.0,0.0,47,0.00,,CLR,0.00,VWS V14.01,2013-08-08 04:20:00,
2013-08-07 21:25:00,68.6,47.6,29.89,SSE,168,0.0,0.0,47,0.00,,CLR,0.00,VWS V14.01,2013-08-08 04:25:00,
2013-08-07 21:30:00,68.1,47.1,29.89,SSE,168,0.0,0.0,47,0.00,,CLR,0.00,VWS V14.01,2013-08-08 04:30:00,
2013-08-07 21:35:00,68.1,56.7,29.89,SSE,168,0.0,0.0,67,0.00,,CLR,0.00,VWS V14.01,2013-08-08 04:35:00,
2013-08-07 21:40:00,67.3,56.0,29.89,SSE,168,0.0,0.0,67,0.00,,CLR,0.00,VWS V14.01,2013-08-08 04:40:00,
2013-08-07 21:45:00,67.3,56.0,29.89,SSE,168,0.0,0.0,67,0.00,,CLR,0.00,VWS V14.01,2013-08-08 04:45:00,
2013-08-07 21:50:00,66.6,55.3,29.89,SSE,168,0.0,0.0,67,0.00,,CLR,0.00,VWS V14.01,2013-08-08 04:50:00,
2013-08-07 21:55:00,66.3,55.0,29.89,SSE,168,0.0,0.0,67,0.00,,CLR,0.00,VWS V14.01,2013-08-08 04:55:00,
2013-08-07 22:00:00,66.0,54.7,29.89,SSE,168,0.0,0.0,67,0.00,,CLR,0.00,VWS V14.01,2013-08-08 05:00:00,
2013-08-07 22:06:00,66.0,54.7,29.90,SSE,168,0.0,0.0,67,0.00,,CLR,0.00,VWS V14.01,2013-08-08 05:06:00,
2013-08-07 22:11:00,66.0,54.7,29.90,SSE,168,0.0,0.0,67,0.00,,CLR,0.00,VWS V14.01,2013-08-08 05:11:00,
2013-08-07 22:16:00,66.0,54.7,29.90,SSE,168,0.0,0.0,67,0.00,,CLR,0.00,VWS V14.01,2013-08-08 05:16:00,
2013-08-07 22:21:00,65.2,54.0,29.90,SSE,168,0.0,0.0,67,0.00,,CLR,0.00,VWS V14.01,2013-08-08 05:21:00,
2013-08-07 22:26:00,65.0,53.8,29.90,SSE,168,0.0,0.0,67,0.00,,CLR,0.00,VWS V14.01,2013-08-08 05:26:00,
2013-08-07 22:31:00,65.0,53.8,29.90,SSE,168,0.0,0.0,67,0.00,,CLR,0.00,VWS V14.01,2013-08-08 05:31:00,
2013-08-07 22:36:00,65.0,53.8,29.90,SSE,168,0.0,0.0,67,0.00,,CLR,0.00,VWS V14.01,2013-08-08 05:36:00,
2013-08-07 22:41:00,64.2,53.0,29.90,SSE,168,0.0,0.0,67,0.00,,CLR,0.00,VWS V14.01,2013-08-08 05:41:00,
2013-08-07 22:47:00,64.2,53.0,29.90,SSE,168,0.0,0.0,67,0.00,,CLR,0.00,VWS V14.01,2013-08-08 05:47:00,
2013-08-07 22:52:00,63.9,52.7,29.90,SSE,168,0.0,0.0,67,0.00,,CLR,0.00,VWS V14.01,2013-08-08 05:52:00,
2013-08-07 22:57:00,63.7,52.5,29.90,SSE,168,0.0,0.0,67,0.00,,CLR,0.00,VWS V14.01,2013-08-08 05:57:00,
2013-08-07 23:02:00,63.7,52.5,29.90,SSE,168,0.0,0.0,67,0.00,,CLR,0.00,VWS V14.01,2013-08-08 06:02:00,
2013-08-07 23:07:00,63.6,52.5,29.90,SSE,168,0.0,0.0,67,0.00,,CLR,0.00,VWS V14.01,2013-08-08 06:07:00,
2013-08-07 23:12:00,63.4,52.3,29.90,SSE,168,0.0,0.0,67,0.00,,CLR,0.00,VWS V14.01,2013-08-08 06:12:00,
2013-08-07 23:17:00,63.3,52.2,29.90,SSE,168,0.0,0.0,67,0.00,,CLR,0.00,VWS V14.01,2013-08-08 06:17:00,
2013-08-07 23:22:00,63.3,52.2,29.90,SSE,168,0.0,0.0,67,0.00,,CLR,0.00,VWS V14.01,2013-08-08 06:22:00,
2013-08-07 23:27:00,62.8,51.7,29.90,SSE,168,0.0,0.0,67,0.00,,CLR,0.00,VWS V14.01,2013-08-08 06:27:00,
2013-08-07 23:32:00,62.8,51.7,29.90,SSE,168,0.0,0.0,67,0.00,,CLR,0.00,VWS V14.01,2013-08-08 06:32:00,
2013-08-07 23:37:00,62.8,51.7,29.90,SSE,168,0.0,0.0,67,0.00,,CLR,0.00,VWS V14.01,2013-08-08 06:37:00,
2013-08-07 23:42:00,62.2,51.1,29.90,SSE,168,0.0,0.0,67,0.00,,CLR,0.00,VWS V14.01,2013-08-08 06:42:00,
2013-08-07 23:47:00,62.2,51.1,29.90,SSE,168,0.0,0.0,67,0.00,,CLR,0.00,VWS V14.01,2013-08-08 06:47:00,
2013-08-07 23:53:00,62.2,51.1,29.90,SSE,168,0.0,0.0,67,0.00,,CLR,0.00,VWS V14.01,2013-08-08 06:53:00,
2013-08-07 23:58:00,61.4,50.4,29.90,SSE,168,0.0,0.0,67,0.00,,CLR,0.00,VWS V14.01,2013-08-08 06:58:00,